sensor_id;sensor_type;location;lat;lon;timestamp;pressure;altitude;pressure_sealevel;temperature;humidity
62124;BME280;48110;47.532;19.078;2022-10-17T00:03:06;101688.38;;;9.59;100.00
62124;BME280;48110;47.532;19.078;2022-10-17T00:06:15;101691.41;;;9.54;100.00
62124;BME280;48110;47.532;19.078;2022-10-17T00:09:22;101689.75;;;9.53;100.00
62124;BME280;48110;47.532;19.078;2022-10-17T00:12:30;101689.28;;;9.48;100.00
62124;BME280;48110;47.532;19.078;2022-10-17T00:15:37;101689.28;;;9.48;100.00
62124;BME280;48110;47.532;19.078;2022-10-17T00:18:45;101690.25;;;9.47;100.00
62124;BME280;48110;47.532;19.078;2022-10-17T00:21:51;101695.94;;;9.43;100.00
62124;BME280;48110;47.532;19.078;2022-10-17T00:24:58;101691.50;;;9.43;100.00
62124;BME280;48110;47.532;19.078;2022-10-17T00:28:07;101687.37;;;9.39;100.00
62124;BME280;48110;47.532;19.078;2022-10-17T00:31:15;101692.94;;;9.36;100.00
62124;BME280;48110;47.532;19.078;2022-10-17T00:34:23;101685.13;;;9.35;100.00
62124;BME280;48110;47.532;19.078;2022-10-17T00:37:31;101678.28;;;9.32;100.00
62124;BME280;48110;47.532;19.078;2022-10-17T00:40:42;101683.59;;;9.32;100.00
62124;BME280;48110;47.532;19.078;2022-10-17T00:47:00;101692.88;;;9.27;100.00
62124;BME280;48110;47.532;19.078;2022-10-17T00:50:10;101692.41;;;9.22;100.00
62124;BME280;48110;47.532;19.078;2022-10-17T00:53:18;101689.88;;;9.20;100.00
62124;BME280;48110;47.532;19.078;2022-10-17T00:56:26;101691.13;;;9.16;100.00
62124;BME280;48110;47.532;19.078;2022-10-17T00:59:34;101693.06;;;9.14;100.00
62124;BME280;48110;47.532;19.078;2022-10-17T01:02:42;101688.72;;;9.13;100.00
62124;BME280;48110;47.532;19.078;2022-10-17T01:05:48;101683.81;;;9.08;100.00
62124;BME280;48110;47.532;19.078;2022-10-17T01:08:57;101683.09;;;9.06;100.00
62124;BME280;48110;47.532;19.078;2022-10-17T01:21:37;101679.97;;;9.01;100.00
62124;BME280;48110;47.532;19.078;2022-10-17T01:28:00;101687.81;;;9.03;100.00
62124;BME280;48110;47.532;19.078;2022-10-17T01:31:13;101678.56;;;8.97;100.00
62124;BME280;48110;47.532;19.078;2022-10-17T01:37:29;101679.91;;;8.92;100.00
62124;BME280;48110;47.532;19.078;2022-10-17T01:43:48;101688.78;;;8.91;100.00
62124;BME280;48110;47.532;19.078;2022-10-17T01:47:07;101682.22;;;8.85;100.00
62124;BME280;48110;47.532;19.078;2022-10-17T01:50:18;101691.13;;;8.84;100.00
62124;BME280;48110;47.532;19.078;2022-10-17T01:53:32;101689.69;;;8.80;100.00
62124;BME280;48110;47.532;19.078;2022-10-17T01:56:40;101687.16;;;8.79;100.00
62124;BME280;48110;47.532;19.078;2022-10-17T01:59:48;101693.56;;;8.76;100.00
62124;BME280;48110;47.532;19.078;2022-10-17T02:02:59;101693.66;;;8.75;100.00
62124;BME280;48110;47.532;19.078;2022-10-17T02:06:07;101699.06;;;8.73;100.00
62124;BME280;48110;47.532;19.078;2022-10-17T02:09:18;101698.50;;;8.69;100.00
62124;BME280;48110;47.532;19.078;2022-10-17T02:16:12;101690.81;;;8.66;100.00
62124;BME280;48110;47.532;19.078;2022-10-17T02:22:48;101698.97;;;8.63;100.00
62124;BME280;48110;47.532;19.078;2022-10-17T02:25:59;101698.50;;;8.58;100.00
62124;BME280;48110;47.532;19.078;2022-10-17T02:29:21;101701.25;;;8.57;100.00
62124;BME280;48110;47.532;19.078;2022-10-17T02:32:34;101703.31;;;8.53;100.00
62124;BME280;48110;47.532;19.078;2022-10-17T02:35:43;101705.47;;;8.48;100.00
62124;BME280;48110;47.532;19.078;2022-10-17T02:38:53;101706.34;;;8.49;100.00
62124;BME280;48110;47.532;19.078;2022-10-17T02:42:00;101716.53;;;8.53;100.00
62124;BME280;48110;47.532;19.078;2022-10-17T02:45:12;101714.03;;;8.52;100.00
62124;BME280;48110;47.532;19.078;2022-10-17T02:48:21;101720.16;;;8.52;100.00
62124;BME280;48110;47.532;19.078;2022-10-17T02:51:36;101720.03;;;8.65;100.00
62124;BME280;48110;47.532;19.078;2022-10-17T02:54:47;101720.03;;;8.65;100.00
62124;BME280;48110;47.532;19.078;2022-10-17T02:57:57;101712.19;;;8.63;100.00
62124;BME280;48110;47.532;19.078;2022-10-17T03:01:04;101718.81;;;8.58;100.00
62124;BME280;48110;47.532;19.078;2022-10-17T03:04:12;101723.78;;;8.51;100.00
62124;BME280;48110;47.532;19.078;2022-10-17T03:07:19;101721.13;;;8.51;100.00
62124;BME280;48110;47.532;19.078;2022-10-17T03:10:25;101722.56;;;8.44;100.00
62124;BME280;48110;47.532;19.078;2022-10-17T03:13:30;101719.44;;;8.39;100.00
62124;BME280;48110;47.532;19.078;2022-10-17T03:16:40;101724.97;;;8.36;100.00
62124;BME280;48110;47.532;19.078;2022-10-17T03:19:46;101731.47;;;8.32;100.00
62124;BME280;48110;47.532;19.078;2022-10-17T03:22:57;101735.91;;;8.32;100.00
62124;BME280;48110;47.532;19.078;2022-10-17T03:26:06;101744.19;;;8.38;100.00
62124;BME280;48110;47.532;19.078;2022-10-17T03:29:15;101742.28;;;8.40;100.00
62124;BME280;48110;47.532;19.078;2022-10-17T03:32:22;101740.69;;;8.38;100.00
62124;BME280;48110;47.532;19.078;2022-10-17T03:35:29;101740.97;;;8.35;100.00
62124;BME280;48110;47.532;19.078;2022-10-17T03:38:34;101742.16;;;8.31;100.00
62124;BME280;48110;47.532;19.078;2022-10-17T03:41:42;101751.66;;;8.33;100.00
62124;BME280;48110;47.532;19.078;2022-10-17T03:44:50;101761.53;;;8.31;100.00
62124;BME280;48110;47.532;19.078;2022-10-17T03:47:57;101756.34;;;8.29;100.00
62124;BME280;48110;47.532;19.078;2022-10-17T03:51:04;101762.53;;;8.28;100.00
62124;BME280;48110;47.532;19.078;2022-10-17T03:54:12;101765.44;;;8.25;100.00
62124;BME280;48110;47.532;19.078;2022-10-17T03:57:18;101772.78;;;8.22;100.00
62124;BME280;48110;47.532;19.078;2022-10-17T04:00:23;101768.19;;;8.24;100.00
62124;BME280;48110;47.532;19.078;2022-10-17T04:03:30;101777.06;;;8.23;100.00
62124;BME280;48110;47.532;19.078;2022-10-17T04:06:38;101768.94;;;8.26;100.00
62124;BME280;48110;47.532;19.078;2022-10-17T04:09:46;101773.13;;;8.28;100.00
62124;BME280;48110;47.532;19.078;2022-10-17T04:12:54;101779.41;;;8.27;100.00
62124;BME280;48110;47.532;19.078;2022-10-17T04:16:00;101784.34;;;8.32;100.00
62124;BME280;48110;47.532;19.078;2022-10-17T04:19:08;101787.09;;;8.53;100.00
62124;BME280;48110;47.532;19.078;2022-10-17T04:22:17;101790.59;;;8.64;100.00
62124;BME280;48110;47.532;19.078;2022-10-17T04:25:22;101788.22;;;8.61;100.00
62124;BME280;48110;47.532;19.078;2022-10-17T04:28:31;101788.91;;;8.52;100.00
62124;BME280;48110;47.532;19.078;2022-10-17T04:31:39;101798.78;;;8.39;100.00
62124;BME280;48110;47.532;19.078;2022-10-17T04:34:47;101789.66;;;8.32;100.00
62124;BME280;48110;47.532;19.078;2022-10-17T04:37:54;101792.13;;;8.22;100.00
62124;BME280;48110;47.532;19.078;2022-10-17T04:41:03;101796.44;;;8.12;100.00
62124;BME280;48110;47.532;19.078;2022-10-17T04:44:08;101805.66;;;8.07;100.00
62124;BME280;48110;47.532;19.078;2022-10-17T04:47:14;101806.13;;;8.01;100.00
62124;BME280;48110;47.532;19.078;2022-10-17T04:50:18;101791.22;;;8.00;100.00
62124;BME280;48110;47.532;19.078;2022-10-17T04:53:37;101800.00;;;8.00;100.00
62124;BME280;48110;47.532;19.078;2022-10-17T04:56:42;101802.16;;;7.95;100.00
62124;BME280;48110;47.532;19.078;2022-10-17T04:59:47;101810.72;;;7.99;100.00
62124;BME280;48110;47.532;19.078;2022-10-17T05:02:53;101821.50;;;7.96;100.00
62124;BME280;48110;47.532;19.078;2022-10-17T05:06:02;101815.34;;;7.95;100.00
62124;BME280;48110;47.532;19.078;2022-10-17T05:09:07;101818.94;;;7.94;100.00
62124;BME280;48110;47.532;19.078;2022-10-17T05:12:12;101817.03;;;7.96;100.00
62124;BME280;48110;47.532;19.078;2022-10-17T05:15:16;101816.94;;;7.98;100.00
62124;BME280;48110;47.532;19.078;2022-10-17T05:18:21;101817.78;;;7.98;100.00
62124;BME280;48110;47.532;19.078;2022-10-17T05:21:29;101822.94;;;8.00;100.00
62124;BME280;48110;47.532;19.078;2022-10-17T05:24:32;101822.94;;;8.00;100.00
62124;BME280;48110;47.532;19.078;2022-10-17T05:27:36;101832.44;;;8.02;100.00
62124;BME280;48110;47.532;19.078;2022-10-17T05:30:42;101840.25;;;8.04;100.00
62124;BME280;48110;47.532;19.078;2022-10-17T05:33:45;101845.06;;;8.10;100.00
62124;BME280;48110;47.532;19.078;2022-10-17T05:36:49;101846.41;;;8.15;100.00
62124;BME280;48110;47.532;19.078;2022-10-17T05:39:55;101850.75;;;8.16;100.00
62124;BME280;48110;47.532;19.078;2022-10-17T05:42:59;101855.69;;;8.21;100.00
62124;BME280;48110;47.532;19.078;2022-10-17T05:46:03;101862.41;;;8.25;100.00
62124;BME280;48110;47.532;19.078;2022-10-17T05:49:09;101859.25;;;8.33;100.00
62124;BME280;48110;47.532;19.078;2022-10-17T05:52:32;101869.31;;;8.39;100.00
62124;BME280;48110;47.532;19.078;2022-10-17T05:55:39;101873.06;;;8.47;100.00
62124;BME280;48110;47.532;19.078;2022-10-17T05:58:41;101883.31;;;8.52;100.00
62124;BME280;48110;47.532;19.078;2022-10-17T06:01:59;101882.13;;;8.56;100.00
62124;BME280;48110;47.532;19.078;2022-10-17T06:05:04;101889.09;;;8.68;100.00
62124;BME280;48110;47.532;19.078;2022-10-17T06:08:07;101888.00;;;8.82;100.00
62124;BME280;48110;47.532;19.078;2022-10-17T06:11:11;101898.22;;;8.86;100.00
62124;BME280;48110;47.532;19.078;2022-10-17T06:14:15;101905.34;;;8.97;100.00
62124;BME280;48110;47.532;19.078;2022-10-17T06:17:19;101910.28;;;9.01;100.00
62124;BME280;48110;47.532;19.078;2022-10-17T06:20:23;101914.03;;;9.10;100.00
62124;BME280;48110;47.532;19.078;2022-10-17T06:23:27;101913.16;;;9.21;100.00
62124;BME280;48110;47.532;19.078;2022-10-17T06:26:30;101923.62;;;9.33;100.00
62124;BME280;48110;47.532;19.078;2022-10-17T06:29:34;101925.53;;;9.42;100.00
62124;BME280;48110;47.532;19.078;2022-10-17T06:32:37;101927.34;;;9.53;100.00
62124;BME280;48110;47.532;19.078;2022-10-17T06:35:41;101939.78;;;9.73;100.00
62124;BME280;48110;47.532;19.078;2022-10-17T06:38:46;101930.09;;;9.94;100.00
62124;BME280;48110;47.532;19.078;2022-10-17T06:41:50;101943.47;;;9.93;100.00
62124;BME280;48110;47.532;19.078;2022-10-17T06:44:53;101942.78;;;9.91;100.00
62124;BME280;48110;47.532;19.078;2022-10-17T06:47:58;101944.31;;;9.93;100.00
62124;BME280;48110;47.532;19.078;2022-10-17T06:51:01;101957.66;;;10.03;100.00
62124;BME280;48110;47.532;19.078;2022-10-17T06:54:09;101952.97;;;10.07;100.00
62124;BME280;48110;47.532;19.078;2022-10-17T06:57:12;101951.47;;;10.14;100.00
62124;BME280;48110;47.532;19.078;2022-10-17T07:00:18;101955.44;;;10.30;100.00
62124;BME280;48110;47.532;19.078;2022-10-17T07:03:23;101964.03;;;10.43;100.00
62124;BME280;48110;47.532;19.078;2022-10-17T07:06:26;101958.47;;;10.46;100.00
62124;BME280;48110;47.532;19.078;2022-10-17T07:09:30;101967.84;;;10.51;100.00
62124;BME280;48110;47.532;19.078;2022-10-17T07:12:34;101968.31;;;10.56;100.00
62124;BME280;48110;47.532;19.078;2022-10-17T07:15:39;101977.47;;;10.63;100.00
62124;BME280;48110;47.532;19.078;2022-10-17T07:18:47;101965.66;;;10.76;100.00
62124;BME280;48110;47.532;19.078;2022-10-17T07:21:52;101978.59;;;10.90;100.00
62124;BME280;48110;47.532;19.078;2022-10-17T07:24:57;101980.06;;;11.04;100.00
62124;BME280;48110;47.532;19.078;2022-10-17T07:28:00;101981.84;;;11.24;100.00
62124;BME280;48110;47.532;19.078;2022-10-17T07:31:06;101982.13;;;11.52;100.00
62124;BME280;48110;47.532;19.078;2022-10-17T07:34:09;101983.22;;;11.80;100.00
62124;BME280;48110;47.532;19.078;2022-10-17T07:37:13;101985.63;;;12.40;100.00
62124;BME280;48110;47.532;19.078;2022-10-17T07:40:18;101985.41;;;13.73;97.36
62124;BME280;48110;47.532;19.078;2022-10-17T07:43:22;101985.63;;;15.72;85.89
62124;BME280;48110;47.532;19.078;2022-10-17T07:46:25;101988.78;;;17.61;72.84
62124;BME280;48110;47.532;19.078;2022-10-17T07:49:28;101998.72;;;19.41;64.98
62124;BME280;48110;47.532;19.078;2022-10-17T07:52:31;101997.44;;;20.88;55.77
62124;BME280;48110;47.532;19.078;2022-10-17T07:55:38;102001.34;;;20.78;55.62
62124;BME280;48110;47.532;19.078;2022-10-17T07:58:41;102003.16;;;22.29;53.35
62124;BME280;48110;47.532;19.078;2022-10-17T08:01:47;102005.31;;;22.92;47.72
62124;BME280;48110;47.532;19.078;2022-10-17T08:04:50;102002.25;;;24.04;45.81
62124;BME280;48110;47.532;19.078;2022-10-17T08:07:55;102013.09;;;24.74;43.55
62124;BME280;48110;47.532;19.078;2022-10-17T08:11:02;102012.75;;;22.44;47.44
62124;BME280;48110;47.532;19.078;2022-10-17T08:14:06;102023.25;;;24.22;43.00
62124;BME280;48110;47.532;19.078;2022-10-17T08:17:10;102018.88;;;25.45;40.44
62124;BME280;48110;47.532;19.078;2022-10-17T08:20:15;102015.91;;;26.31;38.44
62124;BME280;48110;47.532;19.078;2022-10-17T08:23:19;102014.25;;;23.13;41.95
62124;BME280;48110;47.532;19.078;2022-10-17T08:26:22;102010.16;;;19.73;51.26
62124;BME280;48110;47.532;19.078;2022-10-17T08:29:26;101996.63;;;17.08;61.95
62124;BME280;48110;47.532;19.078;2022-10-17T08:32:29;102008.34;;;17.23;62.26
62124;BME280;48110;47.532;19.078;2022-10-17T08:35:33;102002.03;;;16.67;62.92
62124;BME280;48110;47.532;19.078;2022-10-17T08:38:36;102003.59;;;16.03;66.22
62124;BME280;48110;47.532;19.078;2022-10-17T08:48:15;102003.97;;;15.58;68.29
62124;BME280;48110;47.532;19.078;2022-10-17T08:51:21;102008.72;;;15.39;69.11
62124;BME280;48110;47.532;19.078;2022-10-17T08:54:35;102004.97;;;15.32;68.47
62124;BME280;48110;47.532;19.078;2022-10-17T08:57:40;102002.75;;;15.19;68.85
62124;BME280;48110;47.532;19.078;2022-10-17T09:00:47;102005.69;;;15.08;69.83
62124;BME280;48110;47.532;19.078;2022-10-17T09:07:21;101996.09;;;14.97;70.46
62124;BME280;48110;47.532;19.078;2022-10-17T09:20:07;101994.88;;;15.17;71.08
62124;BME280;48110;47.532;19.078;2022-10-17T09:23:19;101992.56;;;15.22;70.77
62124;BME280;48110;47.532;19.078;2022-10-17T09:26:24;101994.12;;;15.33;70.26
62124;BME280;48110;47.532;19.078;2022-10-17T09:29:28;101986.88;;;15.26;72.49
62124;BME280;48110;47.532;19.078;2022-10-17T09:32:40;101996.19;;;15.39;69.44
62124;BME280;48110;47.532;19.078;2022-10-17T09:35:45;101998.88;;;15.47;68.09
62124;BME280;48110;47.532;19.078;2022-10-17T09:38:54;101987.81;;;15.68;68.74
62124;BME280;48110;47.532;19.078;2022-10-17T09:41:58;101991.22;;;15.94;67.10
62124;BME280;48110;47.532;19.078;2022-10-17T09:48:25;101991.84;;;15.88;68.03
62124;BME280;48110;47.532;19.078;2022-10-17T09:51:31;101986.69;;;16.03;65.20
62124;BME280;48110;47.532;19.078;2022-10-17T09:54:38;101985.56;;;16.22;65.54
62124;BME280;48110;47.532;19.078;2022-10-17T09:57:52;101987.25;;;16.23;66.70
62124;BME280;48110;47.532;19.078;2022-10-17T10:00:57;101985.25;;;16.33;64.22
62124;BME280;48110;47.532;19.078;2022-10-17T10:04:24;101987.13;;;16.40;62.00
62124;BME280;48110;47.532;19.078;2022-10-17T10:07:38;101989.28;;;16.53;60.98
62124;BME280;48110;47.532;19.078;2022-10-17T10:10:42;101972.06;;;16.72;59.14
62124;BME280;48110;47.532;19.078;2022-10-17T10:13:46;101984.56;;;16.95;58.40
62124;BME280;48110;47.532;19.078;2022-10-17T10:16:50;101974.22;;;16.92;60.59
62124;BME280;48110;47.532;19.078;2022-10-17T10:19:55;101987.13;;;16.89;58.83
62124;BME280;48110;47.532;19.078;2022-10-17T10:26:19;101972.44;;;17.24;59.90
62124;BME280;48110;47.532;19.078;2022-10-17T10:29:29;101969.22;;;17.28;58.16
62124;BME280;48110;47.532;19.078;2022-10-17T10:32:34;101969.37;;;17.35;58.43
62124;BME280;48110;47.532;19.078;2022-10-17T10:35:40;101973.91;;;17.43;58.81
62124;BME280;48110;47.532;19.078;2022-10-17T10:38:49;101961.59;;;17.56;57.61
62124;BME280;48110;47.532;19.078;2022-10-17T10:41:54;101963.22;;;17.73;57.57
62124;BME280;48110;47.532;19.078;2022-10-17T10:45:01;101966.19;;;17.78;57.97
62124;BME280;48110;47.532;19.078;2022-10-17T10:48:20;101965.09;;;17.96;55.23
62124;BME280;48110;47.532;19.078;2022-10-17T10:51:37;101956.03;;;18.19;55.48
62124;BME280;48110;47.532;19.078;2022-10-17T10:54:52;101957.88;;;18.42;53.83
62124;BME280;48110;47.532;19.078;2022-10-17T10:57:57;101960.25;;;19.26;53.70
62124;BME280;48110;47.532;19.078;2022-10-17T11:01:04;101959.50;;;22.58;45.09
62124;BME280;48110;47.532;19.078;2022-10-17T11:13:24;101962.59;;;26.65;32.78
62124;BME280;48110;47.532;19.078;2022-10-17T11:16:40;101959.63;;;26.43;33.21
62124;BME280;48110;47.532;19.078;2022-10-17T11:26:15;101949.50;;;29.05;28.82
62124;BME280;48110;47.532;19.078;2022-10-17T11:29:28;101951.84;;;29.84;27.85
62124;BME280;48110;47.532;19.078;2022-10-17T11:32:45;101947.66;;;28.89;28.71
62124;BME280;48110;47.532;19.078;2022-10-17T11:35:51;101940.59;;;31.80;25.18
62124;BME280;48110;47.532;19.078;2022-10-17T11:39:02;101941.78;;;32.19;24.53
62124;BME280;48110;47.532;19.078;2022-10-17T11:42:14;101938.00;;;34.81;22.06
62124;BME280;48110;47.532;19.078;2022-10-17T11:45:22;101933.22;;;31.85;24.75
62124;BME280;48110;47.532;19.078;2022-10-17T11:48:30;101935.75;;;29.60;27.22
62124;BME280;48110;47.532;19.078;2022-10-17T11:51:45;101936.09;;;29.42;28.12
62124;BME280;48110;47.532;19.078;2022-10-17T11:55:12;101926.47;;;29.61;27.11
62124;BME280;48110;47.532;19.078;2022-10-17T12:07:58;101918.09;;;31.93;25.49
62124;BME280;48110;47.532;19.078;2022-10-17T12:11:06;101905.59;;;31.35;25.88
62124;BME280;48110;47.532;19.078;2022-10-17T12:17:35;101914.13;;;29.15;28.35
62124;BME280;48110;47.532;19.078;2022-10-17T12:20:41;101901.50;;;26.84;31.52
62124;BME280;48110;47.532;19.078;2022-10-17T12:23:51;101893.50;;;25.89;33.39
62124;BME280;48110;47.532;19.078;2022-10-17T12:26:54;101895.50;;;23.99;36.66
62124;BME280;48110;47.532;19.078;2022-10-17T12:42:44;101876.28;;;22.14;41.14
62124;BME280;48110;47.532;19.078;2022-10-17T12:45:49;101874.22;;;21.96;40.41
62124;BME280;48110;47.532;19.078;2022-10-17T12:49:01;101874.81;;;21.92;41.24
62124;BME280;48110;47.532;19.078;2022-10-17T12:55:22;101871.84;;;21.74;43.01
62124;BME280;48110;47.532;19.078;2022-10-17T12:58:27;101873.50;;;21.75;42.17
62124;BME280;48110;47.532;19.078;2022-10-17T13:01:35;101867.91;;;21.63;42.24
62124;BME280;48110;47.532;19.078;2022-10-17T13:04:40;101861.81;;;21.48;43.28
62124;BME280;48110;47.532;19.078;2022-10-17T13:07:46;101867.06;;;21.62;42.71
62124;BME280;48110;47.532;19.078;2022-10-17T13:10:51;101864.41;;;21.21;43.26
62124;BME280;48110;47.532;19.078;2022-10-17T13:13:59;101855.06;;;21.17;46.19
62124;BME280;48110;47.532;19.078;2022-10-17T13:17:06;101860.37;;;21.04;48.37
62124;BME280;48110;47.532;19.078;2022-10-17T13:20:26;101852.06;;;21.06;46.10
62124;BME280;48110;47.532;19.078;2022-10-17T13:23:34;101856.16;;;20.89;46.13
62124;BME280;48110;47.532;19.078;2022-10-17T13:26:43;101854.47;;;20.81;47.43
62124;BME280;48110;47.532;19.078;2022-10-17T13:29:48;101852.38;;;20.76;47.53
62124;BME280;48110;47.532;19.078;2022-10-17T13:32:53;101848.72;;;20.56;46.31
62124;BME280;48110;47.532;19.078;2022-10-17T13:35:57;101844.34;;;20.55;43.17
62124;BME280;48110;47.532;19.078;2022-10-17T13:39:06;101853.69;;;20.59;43.23
62124;BME280;48110;47.532;19.078;2022-10-17T13:42:23;101847.94;;;20.69;41.78
62124;BME280;48110;47.532;19.078;2022-10-17T13:45:29;101848.38;;;20.72;44.23
62124;BME280;48110;47.532;19.078;2022-10-17T13:48:34;101849.56;;;20.63;43.59
62124;BME280;48110;47.532;19.078;2022-10-17T13:51:41;101839.81;;;20.62;43.98
62124;BME280;48110;47.532;19.078;2022-10-17T13:54:47;101847.19;;;20.47;45.65
62124;BME280;48110;47.532;19.078;2022-10-17T13:57:53;101838.28;;;20.47;44.19
62124;BME280;48110;47.532;19.078;2022-10-17T14:00:58;101836.53;;;20.32;46.07
62124;BME280;48110;47.532;19.078;2022-10-17T14:04:02;101835.19;;;20.01;47.48
62124;BME280;48110;47.532;19.078;2022-10-17T14:07:27;101836.34;;;19.91;47.26
62124;BME280;48110;47.532;19.078;2022-10-17T14:10:55;101838.88;;;20.00;47.25
62124;BME280;48110;47.532;19.078;2022-10-17T14:14:00;101838.44;;;19.96;44.40
62124;BME280;48110;47.532;19.078;2022-10-17T14:17:13;101835.72;;;19.89;46.06
62124;BME280;48110;47.532;19.078;2022-10-17T14:20:18;101832.44;;;19.73;48.04
62124;BME280;48110;47.532;19.078;2022-10-17T14:23:43;101827.25;;;19.71;47.30
62124;BME280;48110;47.532;19.078;2022-10-17T14:26:53;101828.53;;;19.54;49.72
62124;BME280;48110;47.532;19.078;2022-10-17T14:29:58;101826.87;;;19.38;48.41
62124;BME280;48110;47.532;19.078;2022-10-17T14:33:10;101825.41;;;19.36;48.21
62124;BME280;48110;47.532;19.078;2022-10-17T14:36:16;101832.28;;;19.24;50.22
62124;BME280;48110;47.532;19.078;2022-10-17T14:39:23;101830.34;;;19.18;49.44
62124;BME280;48110;47.532;19.078;2022-10-17T14:42:28;101833.25;;;19.16;49.14
62124;BME280;48110;47.532;19.078;2022-10-17T14:45:33;101826.97;;;18.94;49.47
62124;BME280;48110;47.532;19.078;2022-10-17T14:48:39;101828.47;;;18.82;48.98
62124;BME280;48110;47.532;19.078;2022-10-17T14:55:24;101827.25;;;18.70;49.97
62124;BME280;48110;47.532;19.078;2022-10-17T14:58:29;101825.22;;;18.57;52.28
62124;BME280;48110;47.532;19.078;2022-10-17T15:01:34;101819.16;;;18.41;52.62
62124;BME280;48110;47.532;19.078;2022-10-17T15:04:38;101819.13;;;18.26;53.66
62124;BME280;48110;47.532;19.078;2022-10-17T15:07:43;101824.06;;;18.37;51.70
62124;BME280;48110;47.532;19.078;2022-10-17T15:10:49;101820.81;;;18.27;53.30
62124;BME280;48110;47.532;19.078;2022-10-17T15:13:55;101818.25;;;18.11;53.74
62124;BME280;48110;47.532;19.078;2022-10-17T15:17:00;101830.94;;;18.02;53.10
62124;BME280;48110;47.532;19.078;2022-10-17T15:20:09;101825.78;;;18.01;53.52
62124;BME280;48110;47.532;19.078;2022-10-17T15:23:16;101829.03;;;17.88;53.82
62124;BME280;48110;47.532;19.078;2022-10-17T15:26:22;101827.63;;;17.77;54.14
62124;BME280;48110;47.532;19.078;2022-10-17T15:29:28;101823.28;;;17.76;53.48
62124;BME280;48110;47.532;19.078;2022-10-17T15:32:35;101832.34;;;17.75;54.54
62124;BME280;48110;47.532;19.078;2022-10-17T15:35:40;101833.78;;;17.55;54.66
62124;BME280;48110;47.532;19.078;2022-10-17T15:38:48;101828.34;;;17.41;55.86
62124;BME280;48110;47.532;19.078;2022-10-17T15:41:56;101829.41;;;17.31;55.57
62124;BME280;48110;47.532;19.078;2022-10-17T15:44:59;101841.72;;;17.18;56.48
62124;BME280;48110;47.532;19.078;2022-10-17T15:48:06;101844.31;;;17.03;57.50
62124;BME280;48110;47.532;19.078;2022-10-17T15:51:13;101840.53;;;16.81;58.48
62124;BME280;48110;47.532;19.078;2022-10-17T15:54:16;101847.97;;;16.63;59.03
62124;BME280;48110;47.532;19.078;2022-10-17T15:57:24;101848.97;;;16.46;60.46
62124;BME280;48110;47.532;19.078;2022-10-17T16:00:32;101851.84;;;16.28;61.37
62124;BME280;48110;47.532;19.078;2022-10-17T16:03:39;101857.19;;;16.12;62.12
62124;BME280;48110;47.532;19.078;2022-10-17T16:06:47;101851.72;;;15.97;63.09
62124;BME280;48110;47.532;19.078;2022-10-17T16:09:54;101860.06;;;15.86;64.07
62124;BME280;48110;47.532;19.078;2022-10-17T16:13:00;101860.53;;;15.74;65.18
62124;BME280;48110;47.532;19.078;2022-10-17T16:16:10;101869.88;;;15.61;66.86
62124;BME280;48110;47.532;19.078;2022-10-17T16:19:18;101866.16;;;15.46;69.17
62124;BME280;48110;47.532;19.078;2022-10-17T16:22:28;101864.59;;;15.36;69.92
62124;BME280;48110;47.532;19.078;2022-10-17T16:25:37;101867.75;;;15.23;71.33
62124;BME280;48110;47.532;19.078;2022-10-17T16:28:46;101869.56;;;15.14;72.50
62124;BME280;48110;47.532;19.078;2022-10-17T16:31:52;101863.50;;;15.04;73.20
62124;BME280;48110;47.532;19.078;2022-10-17T16:35:01;101868.78;;;14.96;74.12
62124;BME280;48110;47.532;19.078;2022-10-17T16:38:06;101859.25;;;14.86;75.44
62124;BME280;48110;47.532;19.078;2022-10-17T16:41:23;101866.06;;;14.80;76.23
62124;BME280;48110;47.532;19.078;2022-10-17T16:44:29;101878.06;;;14.76;76.01
62124;BME280;48110;47.532;19.078;2022-10-17T16:47:36;101875.31;;;14.68;76.48
62124;BME280;48110;47.532;19.078;2022-10-17T16:50:44;101887.66;;;14.61;76.18
62124;BME280;48110;47.532;19.078;2022-10-17T16:53:50;101880.59;;;14.52;77.11
62124;BME280;48110;47.532;19.078;2022-10-17T16:56:57;101880.50;;;14.44;78.08
62124;BME280;48110;47.532;19.078;2022-10-17T17:00:05;101885.91;;;14.34;79.69
62124;BME280;48110;47.532;19.078;2022-10-17T17:03:10;101887.69;;;14.25;80.13
62124;BME280;48110;47.532;19.078;2022-10-17T17:06:19;101886.78;;;14.17;80.81
62124;BME280;48110;47.532;19.078;2022-10-17T17:09:26;101888.56;;;14.08;82.29
62124;BME280;48110;47.532;19.078;2022-10-17T17:12:32;101893.97;;;13.99;83.04
62124;BME280;48110;47.532;19.078;2022-10-17T17:15:36;101891.22;;;13.90;83.54
62124;BME280;48110;47.532;19.078;2022-10-17T17:18:46;101893.97;;;13.81;84.77
62124;BME280;48110;47.532;19.078;2022-10-17T17:21:56;101899.22;;;13.73;85.68
62124;BME280;48110;47.532;19.078;2022-10-17T17:25:02;101894.94;;;13.62;86.60
62124;BME280;48110;47.532;19.078;2022-10-17T17:28:09;101900.03;;;13.56;87.12
62124;BME280;48110;47.532;19.078;2022-10-17T17:31:18;101898.81;;;13.50;87.79
62124;BME280;48110;47.532;19.078;2022-10-17T17:34:25;101898.72;;;13.42;88.82
62124;BME280;48110;47.532;19.078;2022-10-17T17:37:31;101901.16;;;13.35;88.92
62124;BME280;48110;47.532;19.078;2022-10-17T17:40:46;101903.25;;;13.32;89.01
62124;BME280;48110;47.532;19.078;2022-10-17T17:43:55;101891.53;;;13.25;89.65
62124;BME280;48110;47.532;19.078;2022-10-17T17:47:03;101890.44;;;13.18;90.87
62124;BME280;48110;47.532;19.078;2022-10-17T17:50:10;101898.19;;;13.11;91.80
62124;BME280;48110;47.532;19.078;2022-10-17T17:53:18;101892.56;;;13.04;92.07